Fort Garland, Colorado
Current Conditions -  °F | °C
As of 7:12 PM on Saturday 25 Oct 2014 (Local Time) from KVTP Reporting Station
Clear Clear  
Wind Chill: 52°   Ceiling: Unl
Heat Index: 52°   Visibility: 10mi
Dew Point: 19°   Wind: 10mph
Humidity: 28%   Direction: 200°SSW
Pressure: 30.41"   Gusts: 17mph
Location:  37.43°N, 105.43°W
Report Text: KVTP 260112Z AUTO 20009G15KT 10SM CLR 11/M07 A3041 RMK AO2
Loading
Personal Weather Stations






























Interactive Weather Map
Tropical Storm Tracking
New forecast layout! Learn more

10-Day Weather Forecast

Advertisements
Track Severe Weather on mobile